createdAt,value
2022-11-19T00:02:08.324Z,8.07
2022-11-19T00:04:37.234Z,8.23
2022-11-19T00:07:06.083Z,8.48
2022-11-19T00:09:34.469Z,8.20
2022-11-19T00:12:20.111Z,8.20
2022-11-19T00:14:49.003Z,9.48
2022-11-19T00:17:19.176Z,7.53
2022-11-19T00:19:47.647Z,8.32
2022-11-19T00:22:16.211Z,8.57
2022-11-19T00:24:44.764Z,7.47
2022-11-19T00:27:13.686Z,7.07
2022-11-19T00:29:42.262Z,7.10
2022-11-19T00:32:12.261Z,7.38
2022-11-19T00:34:42.470Z,7.10
2022-11-19T00:37:10.851Z,6.53
2022-11-19T00:39:39.264Z,6.80
2022-11-19T00:42:08.144Z,7.72
2022-11-19T00:44:37.609Z,6.80
2022-11-19T00:47:06.698Z,6.93
2022-11-19T00:49:35.412Z,5.85
2022-11-19T00:52:06.087Z,6.15
2022-11-19T00:54:34.625Z,6.25
2022-11-19T00:57:03.362Z,6.53
2022-11-19T00:59:31.957Z,6.60
2022-11-19T01:02:00.758Z,5.25
2022-11-19T01:04:29.599Z,5.90
2022-11-19T01:06:58.110Z,4.95
2022-11-19T01:09:29.701Z,5.07
2022-11-19T01:11:58.296Z,5.70
2022-11-19T01:14:27.621Z,5.72
2022-11-19T01:16:56.446Z,5.82
2022-11-19T01:19:25.212Z,5.57
2022-11-19T01:21:54.204Z,5.53
2022-11-19T01:24:22.841Z,5.45
2022-11-19T01:26:54.703Z,5.32
2022-11-19T01:29:23.464Z,5.70
2022-11-19T01:31:52.271Z,5.97
2022-11-19T01:34:20.807Z,5.43
2022-11-19T01:36:49.291Z,6.03
2022-11-19T01:39:20.204Z,6.35
2022-11-19T01:41:49.023Z,6.68
2022-11-19T01:45:00.721Z,5.97
2022-11-19T01:47:29.398Z,6.50
2022-11-19T01:49:58.001Z,6.25
2022-11-19T01:52:27.047Z,7.15
2022-11-19T01:54:57.168Z,7.07
2022-11-19T01:57:26.051Z,7.53
2022-11-19T01:59:56.660Z,7.05
2022-11-19T02:02:26.613Z,7.25
2022-11-19T02:04:57.472Z,7.53
2022-11-19T02:07:29.746Z,8.02
2022-11-19T02:09:59.480Z,12.43
2022-11-19T02:12:38.445Z,10.65
2022-11-19T02:15:21.985Z,8.27
2022-11-19T02:18:19.489Z,6.47
2022-11-19T02:21:00.788Z,6.03
2022-11-19T02:23:55.425Z,6.18
2022-11-19T02:26:50.318Z,6.00
2022-11-19T02:29:40.930Z,5.78
2022-11-19T02:32:16.200Z,5.75
2022-11-19T02:34:52.431Z,5.45
2022-11-19T02:37:30.131Z,5.40
2022-11-19T02:40:07.863Z,5.25
2022-11-19T02:42:39.963Z,5.13
2022-11-19T02:45:15.860Z,4.88
2022-11-19T02:47:48.733Z,5.00
2022-11-19T02:50:21.503Z,5.38
2022-11-19T02:52:50.909Z,5.22
2022-11-19T02:55:22.146Z,5.05
2022-11-19T02:57:56.132Z,5.28
2022-11-19T03:00:45.163Z,5.53
2022-11-19T03:03:35.684Z,5.65
2022-11-19T03:06:11.087Z,5.60
2022-11-19T03:08:40.257Z,5.78
2022-11-19T03:11:18.658Z,5.00
2022-11-19T03:14:14.113Z,4.30
2022-11-19T03:16:52.742Z,4.78
2022-11-19T03:19:39.661Z,4.57
2022-11-19T03:22:14.239Z,4.45
2022-11-19T03:24:47.613Z,5.10
2022-11-19T03:27:22.181Z,4.55
2022-11-19T03:29:54.676Z,4.32
2022-11-19T03:32:29.340Z,4.55
2022-11-19T03:35:03.243Z,4.78
2022-11-19T03:37:35.175Z,4.03
2022-11-19T03:40:05.678Z,4.30
2022-11-19T03:42:35.818Z,4.43
2022-11-19T03:45:09.934Z,4.70
2022-11-19T03:47:43.311Z,4.63
2022-11-19T03:50:19.078Z,4.45
2022-11-19T03:52:47.527Z,4.95
2022-11-19T03:55:17.236Z,4.70
2022-11-19T03:57:46.606Z,4.50
2022-11-19T04:00:16.265Z,4.68
2022-11-19T04:02:46.477Z,4.40
2022-11-19T04:05:15.847Z,4.45
2022-11-19T04:07:44.457Z,4.38
2022-11-19T04:10:13.099Z,4.85
2022-11-19T04:12:41.638Z,4.60
2022-11-19T04:15:13.100Z,4.70
2022-11-19T04:17:42.273Z,5.07
2022-11-19T04:20:13.171Z,4.80
2022-11-19T04:22:42.344Z,4.88
2022-11-19T04:25:11.775Z,4.70
2022-11-19T04:27:40.314Z,4.32
2022-11-19T04:30:10.565Z,5.20
2022-11-19T04:32:39.292Z,4.53
2022-11-19T04:35:07.899Z,5.10
2022-11-19T04:37:38.284Z,4.57
2022-11-19T04:40:09.226Z,4.82
2022-11-19T04:42:37.651Z,4.72
2022-11-19T04:45:06.817Z,4.50
2022-11-19T04:47:35.412Z,4.80
2022-11-19T04:50:04.337Z,4.47
2022-11-19T04:52:39.244Z,4.65
2022-11-19T04:55:11.985Z,4.45
2022-11-19T04:57:40.544Z,4.18
2022-11-19T05:00:11.546Z,4.72
2022-11-19T05:02:40.340Z,4.38
2022-11-19T05:05:10.406Z,4.38
2022-11-19T05:07:39.257Z,4.68
2022-11-19T05:10:08.414Z,5.07
2022-11-19T05:12:38.254Z,4.80
2022-11-19T05:15:07.937Z,4.30
2022-11-19T05:17:36.576Z,4.53
2022-11-19T05:20:05.826Z,4.60
2022-11-19T05:22:34.419Z,5.30
2022-11-19T05:25:02.805Z,4.82
2022-11-19T05:27:34.698Z,5.13
2022-11-19T05:30:05.471Z,4.97
2022-11-19T05:32:36.905Z,4.72
2022-11-19T05:35:05.431Z,4.78
2022-11-19T05:37:34.095Z,4.95
2022-11-19T05:40:02.747Z,4.80
2022-11-19T05:42:31.179Z,4.40
2022-11-19T05:44:59.619Z,4.82
2022-11-19T05:47:30.062Z,4.40
2022-11-19T05:49:58.659Z,4.70
2022-11-19T05:52:27.186Z,4.28
2022-11-19T05:54:55.624Z,4.40
2022-11-19T05:57:24.265Z,4.00
2022-11-19T05:59:52.713Z,4.25
2022-11-19T06:02:21.599Z,4.40
2022-11-19T06:04:51.981Z,4.40
2022-11-19T06:07:20.851Z,4.10
2022-11-19T06:09:49.331Z,4.45
2022-11-19T06:12:19.043Z,4.53
2022-11-19T06:14:47.867Z,4.65
2022-11-19T06:17:16.430Z,4.60
2022-11-19T06:19:45.007Z,4.60
2022-11-19T06:22:15.183Z,4.85
2022-11-19T06:24:43.544Z,4.30
2022-11-19T06:27:12.091Z,4.63
2022-11-19T06:29:40.677Z,4.57
2022-11-19T06:32:09.442Z,3.97
2022-11-19T06:34:37.820Z,3.78
2022-11-19T06:37:06.392Z,3.70
2022-11-19T06:39:36.710Z,3.20
2022-11-19T06:42:19.718Z,3.17
2022-11-19T06:44:48.121Z,3.67
2022-11-19T06:47:16.623Z,3.55
2022-11-19T06:49:45.304Z,3.75
2022-11-19T06:52:14.144Z,3.15
2022-11-19T06:54:44.040Z,3.85
2022-11-19T06:57:12.514Z,4.00
2022-11-19T06:59:41.040Z,4.00
2022-11-19T07:02:12.436Z,4.57
2022-11-19T07:04:41.132Z,4.30
2022-11-19T07:07:11.327Z,4.53
2022-11-19T07:09:40.394Z,4.47
2022-11-19T07:12:11.027Z,4.45
2022-11-19T07:14:39.962Z,4.40
2022-11-19T07:17:08.805Z,5.18
2022-11-19T07:19:37.424Z,4.82
2022-11-19T07:22:05.972Z,4.60
2022-11-19T07:24:34.752Z,5.47
2022-11-19T07:27:03.601Z,4.75
2022-11-19T07:29:33.821Z,4.60
2022-11-19T07:32:03.052Z,4.35
2022-11-19T07:34:31.647Z,4.78
2022-11-19T07:37:00.512Z,5.15
2022-11-19T07:39:29.867Z,5.75
2022-11-19T07:42:15.351Z,6.28
2022-11-19T07:44:45.220Z,6.05
2022-11-19T07:47:13.982Z,6.10
2022-11-19T07:49:42.566Z,5.60
2022-11-19T07:52:11.330Z,6.60
2022-11-19T07:54:40.008Z,6.50
2022-11-19T07:57:08.639Z,6.35
2022-11-19T07:59:37.188Z,6.22
2022-11-19T08:02:07.732Z,6.85
2022-11-19T08:04:36.481Z,6.53
2022-11-19T08:07:05.120Z,5.78
2022-11-19T08:09:33.659Z,5.65
2022-11-19T08:12:02.563Z,5.57
2022-11-19T08:14:31.008Z,5.00
2022-11-19T08:17:16.753Z,6.13
2022-11-19T08:19:46.722Z,5.70
2022-11-19T08:22:15.538Z,5.88
2022-11-19T08:24:44.397Z,6.03
2022-11-19T08:27:13.612Z,5.65
2022-11-19T08:29:42.120Z,5.57
2022-11-19T08:32:11.018Z,5.90
2022-11-19T08:34:39.432Z,5.68
2022-11-19T08:37:11.576Z,5.70
2022-11-19T08:39:40.126Z,5.53
2022-11-19T08:42:26.356Z,5.28
2022-11-19T08:44:55.149Z,5.80
2022-11-19T08:47:23.756Z,5.68
2022-11-19T08:49:52.745Z,6.15
2022-11-19T08:52:22.729Z,5.43
2022-11-19T08:54:51.307Z,5.68
2022-11-19T08:57:20.469Z,5.32
2022-11-19T08:59:49.085Z,5.55
2022-11-19T09:02:17.607Z,5.68
2022-11-19T09:04:47.057Z,5.63
2022-11-19T09:07:15.756Z,5.60
2022-11-19T09:09:45.998Z,6.00
2022-11-19T09:12:14.833Z,5.97
2022-11-19T09:14:43.252Z,5.78
2022-11-19T09:17:11.607Z,6.15
2022-11-19T09:19:40.092Z,6.75
2022-11-19T09:22:08.620Z,6.88
2022-11-19T09:24:37.067Z,6.00
2022-11-19T09:27:06.978Z,5.85
2022-11-19T09:29:35.813Z,6.57
2022-11-19T09:32:04.477Z,6.75
2022-11-19T09:34:35.357Z,6.15
2022-11-19T09:37:03.873Z,6.50
2022-11-19T09:39:32.450Z,6.63
2022-11-19T09:42:16.508Z,6.07
2022-11-19T09:45:04.917Z,6.20
2022-11-19T09:47:54.333Z,6.93
2022-11-19T09:50:26.347Z,8.52
2022-11-19T09:53:00.751Z,8.75
2022-11-19T09:55:33.706Z,8.98
2022-11-19T09:58:07.500Z,10.32
2022-11-19T10:00:36.054Z,11.77
2022-11-19T10:03:15.246Z,12.93
2022-11-19T10:05:56.216Z,12.40
2022-11-19T10:08:37.995Z,12.40
2022-11-19T10:11:21.555Z,12.70
2022-11-19T10:13:59.982Z,11.00
2022-11-19T10:16:42.614Z,10.30
2022-11-19T10:19:22.620Z,9.73
2022-11-19T10:22:02.711Z,9.85
2022-11-19T10:24:40.737Z,8.57
2022-11-19T10:27:19.639Z,7.43
2022-11-19T10:29:55.630Z,8.05
2022-11-19T10:32:31.986Z,7.65
2022-11-19T10:35:06.753Z,6.45
2022-11-19T10:37:40.450Z,6.22
2022-11-19T10:40:15.826Z,5.40
2022-11-19T10:42:48.894Z,6.82
2022-11-19T10:45:21.056Z,7.35
2022-11-19T10:47:53.567Z,11.73
2022-11-19T10:50:24.749Z,6.95
2022-11-19T10:52:57.099Z,6.05
2022-11-19T10:55:28.877Z,6.63
2022-11-19T10:58:08.649Z,5.53
2022-11-19T11:00:42.336Z,6.20
2022-11-19T11:03:20.348Z,5.28
2022-11-19T11:05:58.259Z,5.15
2022-11-19T11:08:27.091Z,5.22
2022-11-19T11:10:55.624Z,4.45
2022-11-19T11:13:56.209Z,4.40
2022-11-19T11:16:33.820Z,3.75
2022-11-19T11:19:05.174Z,3.90
2022-11-19T11:21:38.466Z,3.10
2022-11-19T11:24:08.952Z,4.72
2022-11-19T11:26:38.363Z,4.40
2022-11-19T11:29:09.830Z,3.88
2022-11-19T11:31:42.370Z,3.30
2022-11-19T11:34:29.651Z,2.67
2022-11-19T11:37:00.041Z,3.00
2022-11-19T11:39:31.916Z,2.38
2022-11-19T11:42:06.582Z,2.67
2022-11-19T11:44:38.560Z,2.42
2022-11-19T11:47:15.913Z,2.20
2022-11-19T11:49:47.074Z,2.17
2022-11-19T11:52:21.314Z,2.50
2022-11-19T11:54:58.871Z,2.65
2022-11-19T11:57:31.321Z,2.42
2022-11-19T12:00:00.417Z,3.28
2022-11-19T12:02:33.101Z,2.60
2022-11-19T12:05:03.959Z,2.60
2022-11-19T12:08:05.865Z,1.48
2022-11-19T12:10:45.563Z,3.30
2022-11-19T12:13:48.462Z,3.08
2022-11-19T12:16:29.644Z,2.05
2022-11-19T12:19:11.538Z,1.73
2022-11-19T12:21:50.474Z,1.60
2022-11-19T12:24:36.079Z,1.85
2022-11-19T12:27:16.210Z,1.75
2022-11-19T12:29:58.173Z,1.90
2022-11-19T12:32:49.493Z,1.90
2022-11-19T12:35:36.673Z,1.48
2022-11-19T12:38:27.619Z,2.40
2022-11-19T12:41:08.585Z,1.58
2022-11-19T12:43:55.224Z,1.70
2022-11-19T12:46:33.274Z,1.73
2022-11-19T12:49:30.498Z,1.75
2022-11-19T12:52:06.880Z,1.63
2022-11-19T12:54:48.964Z,1.90
2022-11-19T12:57:33.480Z,1.50
2022-11-19T13:00:15.665Z,1.38
2022-11-19T13:03:02.613Z,1.60
2022-11-19T13:05:42.221Z,1.60
2022-11-19T13:08:20.128Z,1.60
2022-11-19T13:10:52.386Z,1.50
2022-11-19T13:13:26.502Z,1.40
2022-11-19T13:16:01.562Z,1.90
2022-11-19T13:18:34.128Z,1.73
2022-11-19T13:21:05.634Z,2.25
2022-11-19T13:23:40.653Z,2.13
2022-11-19T13:26:14.733Z,1.73
2022-11-19T13:28:48.375Z,2.10
2022-11-19T13:31:30.344Z,1.75
2022-11-19T13:34:02.714Z,1.77
2022-11-19T13:36:37.116Z,1.65
2022-11-19T13:39:16.427Z,2.10
2022-11-19T13:42:07.889Z,1.75
2022-11-19T13:44:41.779Z,2.53
2022-11-19T13:47:19.507Z,3.20
2022-11-19T13:49:52.158Z,2.13
2022-11-19T13:52:27.744Z,2.55
2022-11-19T13:54:59.030Z,2.40
2022-11-19T13:57:32.542Z,2.20
2022-11-19T14:00:05.207Z,3.15
2022-11-19T14:02:55.248Z,2.97
2022-11-19T14:06:02.651Z,3.13
2022-11-19T14:08:48.641Z,2.20
2022-11-19T14:11:33.594Z,3.92
2022-11-19T14:14:50.203Z,6.00
2022-11-19T14:17:46.174Z,4.20
2022-11-19T14:20:52.709Z,2.15
2022-11-19T14:24:03.138Z,2.55
2022-11-19T14:27:04.385Z,1.88
2022-11-19T14:29:56.282Z,2.15
2022-11-19T14:32:36.794Z,2.55
2022-11-19T14:35:43.811Z,2.53
2022-11-19T14:38:33.498Z,2.38
2022-11-19T14:41:16.094Z,2.30
2022-11-19T14:44:13.653Z,1.85
2022-11-19T14:46:45.981Z,1.90
2022-11-19T14:49:27.838Z,1.88
2022-11-19T14:51:58.320Z,1.92
2022-11-19T14:54:39.316Z,1.83
2022-11-19T14:57:16.952Z,1.88
2022-11-19T14:59:53.734Z,1.88
2022-11-19T15:02:27.455Z,1.70
2022-11-19T15:05:05.033Z,1.67
2022-11-19T15:07:44.201Z,1.92
2022-11-19T15:10:35.123Z,2.30
2022-11-19T15:13:18.820Z,2.70
2022-11-19T15:15:51.012Z,2.45
2022-11-19T15:18:41.131Z,2.47
2022-11-19T15:21:24.547Z,2.70
2022-11-19T15:24:07.142Z,1.65
2022-11-19T15:26:46.841Z,1.90
2022-11-19T15:29:25.877Z,2.22
2022-11-19T15:32:22.332Z,1.73
2022-11-19T15:35:19.364Z,1.60
2022-11-19T15:37:52.278Z,2.83
2022-11-19T15:40:24.777Z,3.38
2022-11-19T15:43:03.569Z,3.22
2022-11-19T15:45:38.945Z,2.47
2022-11-19T15:48:15.213Z,2.63
2022-11-19T15:50:44.922Z,3.60
2022-11-19T15:53:19.916Z,2.75
2022-11-19T15:55:53.724Z,3.10
2022-11-19T15:59:13.141Z,2.80
2022-11-19T16:01:42.992Z,3.63
2022-11-19T16:04:18.362Z,3.35
2022-11-19T16:06:52.430Z,2.75
2022-11-19T16:09:26.161Z,2.97
2022-11-19T16:12:14.536Z,2.30
2022-11-19T16:15:00.235Z,3.28
2022-11-19T16:17:42.988Z,2.35
2022-11-19T16:20:22.245Z,2.90
2022-11-19T16:23:00.029Z,1.63
2022-11-19T16:25:34.589Z,2.10
2022-11-19T16:28:06.780Z,3.47
2022-11-19T16:30:46.488Z,2.70
2022-11-19T16:33:18.616Z,6.57
2022-11-19T16:35:52.944Z,2.65
2022-11-19T16:38:26.890Z,3.90
2022-11-19T16:41:13.858Z,10.13
2022-11-19T16:43:45.337Z,10.23
2022-11-19T16:46:17.199Z,15.70
2022-11-19T16:48:58.080Z,2.63
2022-11-19T16:51:35.359Z,5.97
2022-11-19T16:54:05.292Z,3.13
2022-11-19T16:56:44.588Z,2.90
2022-11-19T16:59:21.996Z,2.17
2022-11-19T17:01:56.501Z,2.80
2022-11-19T17:04:29.072Z,2.92
2022-11-19T17:07:00.860Z,2.03
2022-11-19T17:09:41.732Z,2.10
2022-11-19T17:12:27.345Z,2.75
2022-11-19T17:15:01.184Z,3.03
2022-11-19T17:17:40.610Z,2.45
2022-11-19T17:21:01.091Z,2.30
2022-11-19T17:23:33.391Z,2.33
2022-11-19T17:26:04.869Z,3.33
2022-11-19T17:28:41.050Z,3.50
2022-11-19T17:31:17.832Z,3.30
2022-11-19T17:33:52.613Z,3.55
2022-11-19T17:36:22.450Z,3.45
2022-11-19T17:38:52.905Z,3.38
2022-11-19T17:41:38.557Z,5.30
2022-11-19T17:44:31.028Z,3.00
2022-11-19T17:46:59.498Z,3.10
2022-11-19T17:49:27.821Z,1.80
2022-11-19T17:51:56.885Z,2.53
2022-11-19T17:54:26.876Z,2.60
2022-11-19T17:56:55.354Z,2.30
2022-11-19T17:59:23.753Z,2.47
2022-11-19T18:01:52.715Z,2.25
2022-11-19T18:04:21.325Z,2.75
2022-11-19T18:06:50.108Z,2.72
2022-11-19T18:09:19.583Z,2.47
2022-11-19T18:11:49.709Z,2.53
2022-11-19T18:14:18.221Z,2.20
2022-11-19T18:16:46.686Z,2.08
2022-11-19T18:19:24.364Z,2.22
2022-11-19T18:21:53.546Z,2.50
2022-11-19T18:24:22.584Z,2.00
2022-11-19T18:26:52.498Z,2.17
2022-11-19T18:29:21.428Z,2.80
2022-11-19T18:31:53.464Z,2.92
2022-11-19T18:34:25.648Z,3.10
2022-11-19T18:36:54.603Z,5.90
2022-11-19T18:39:23.920Z,4.35
2022-11-19T18:41:54.260Z,5.65
2022-11-19T18:44:33.942Z,4.60
2022-11-19T18:47:04.018Z,5.15
2022-11-19T18:49:33.773Z,8.15
2022-11-19T18:52:02.596Z,11.48
2022-11-19T18:54:30.976Z,13.60
2022-11-19T18:57:01.554Z,13.73
2022-11-19T18:59:30.454Z,11.13
2022-11-19T19:01:59.118Z,12.63
2022-11-19T19:04:27.825Z,11.48
2022-11-19T19:06:56.481Z,10.00
2022-11-19T19:09:25.721Z,5.43
2022-11-19T19:12:13.831Z,5.70
2022-11-19T19:14:45.337Z,7.07
2022-11-19T19:17:14.805Z,5.40
2022-11-19T19:19:43.468Z,5.65
2022-11-19T19:22:12.090Z,3.50
2022-11-19T19:24:40.963Z,3.80
2022-11-19T19:27:09.598Z,4.32
2022-11-19T19:29:39.798Z,4.07
2022-11-19T19:32:10.166Z,4.32
2022-11-19T19:34:38.580Z,2.42
2022-11-19T19:37:07.525Z,1.42
2022-11-19T19:39:35.981Z,4.07
2022-11-19T19:42:04.466Z,3.85
2022-11-19T19:44:32.777Z,6.07
2022-11-19T19:47:01.139Z,5.75
2022-11-19T19:49:33.478Z,6.90
2022-11-19T19:52:06.216Z,6.38
2022-11-19T19:54:34.717Z,2.22
2022-11-19T19:57:03.225Z,5.25
2022-11-19T19:59:31.753Z,8.45
2022-11-19T20:02:00.239Z,5.97
2022-11-19T20:04:30.600Z,30.98
2022-11-19T20:06:59.081Z,5.93
2022-11-19T20:09:27.752Z,7.47
2022-11-19T20:11:56.556Z,8.23
2022-11-19T20:14:25.063Z,8.63
2022-11-19T20:16:53.938Z,11.43
2022-11-19T20:19:22.822Z,7.57
2022-11-19T20:21:54.726Z,6.75
2022-11-19T20:24:23.173Z,4.53
2022-11-19T20:26:52.130Z,3.17
2022-11-19T20:29:22.274Z,2.08
2022-11-19T20:31:52.103Z,3.50
2022-11-19T20:34:21.076Z,2.50
2022-11-19T20:36:49.928Z,2.50
2022-11-19T20:39:19.979Z,3.33
2022-11-19T20:42:06.818Z,2.95
2022-11-19T20:44:35.154Z,3.20
2022-11-19T20:47:05.250Z,2.85
2022-11-19T20:49:36.035Z,1.85
2022-11-19T20:52:05.599Z,5.22
2022-11-19T20:54:36.139Z,5.43
2022-11-19T20:57:04.959Z,5.53
2022-11-19T20:59:33.865Z,3.20
2022-11-19T21:02:02.565Z,2.30
2022-11-19T21:04:36.804Z,2.00
2022-11-19T21:07:06.875Z,1.80
2022-11-19T21:09:37.707Z,2.75
2022-11-19T21:12:06.480Z,1.73
2022-11-19T21:14:35.086Z,1.83
2022-11-19T21:17:03.370Z,2.25
2022-11-19T21:19:31.772Z,2.28
2022-11-19T21:22:00.337Z,2.78
2022-11-19T21:24:28.755Z,3.35
2022-11-19T21:26:59.463Z,3.88
2022-11-19T21:29:28.417Z,2.90
2022-11-19T21:31:56.836Z,2.53
2022-11-19T21:34:25.313Z,2.63
2022-11-19T21:36:53.873Z,3.00
2022-11-19T21:39:22.598Z,3.15
2022-11-19T21:41:51.471Z,4.30
2022-11-19T21:44:22.147Z,3.50
2022-11-19T21:46:50.694Z,2.50
2022-11-19T21:49:19.735Z,3.20
2022-11-19T21:51:49.256Z,4.72
2022-11-19T21:54:17.962Z,4.13
2022-11-19T21:56:47.450Z,6.00
2022-11-19T21:59:16.654Z,4.45
2022-11-19T22:01:51.784Z,2.90
2022-11-19T22:04:22.905Z,2.10
2022-11-19T22:06:51.413Z,3.08
2022-11-19T22:09:20.119Z,3.50
2022-11-19T22:11:48.725Z,1.80
2022-11-19T22:14:17.299Z,3.55
2022-11-19T22:16:47.970Z,8.05
2022-11-19T22:19:16.495Z,4.95
2022-11-19T22:21:46.941Z,5.85
2022-11-19T22:24:15.409Z,4.15
2022-11-19T22:26:44.080Z,2.90
2022-11-19T22:29:12.699Z,9.57
2022-11-19T22:31:41.104Z,6.55
2022-11-19T22:34:13.439Z,3.90
2022-11-19T22:36:43.160Z,3.83
2022-11-19T22:39:12.963Z,3.72
2022-11-19T22:41:41.677Z,3.35
2022-11-19T22:44:10.334Z,3.55
2022-11-19T22:46:39.123Z,4.88
2022-11-19T22:49:08.010Z,3.75
2022-11-19T22:51:38.258Z,3.05
2022-11-19T22:54:08.967Z,4.22
2022-11-19T22:56:41.334Z,2.65
2022-11-19T22:59:09.725Z,2.40
2022-11-19T23:01:38.252Z,3.83
2022-11-19T23:04:08.358Z,2.85
2022-11-19T23:06:38.907Z,3.13
2022-11-19T23:09:08.444Z,2.47
2022-11-19T23:11:54.716Z,2.20
2022-11-19T23:14:23.407Z,3.22
2022-11-19T23:16:51.888Z,2.13
2022-11-19T23:19:20.708Z,3.30
2022-11-19T23:21:51.102Z,3.15
2022-11-19T23:24:19.860Z,3.13
2022-11-19T23:26:48.316Z,2.47
2022-11-19T23:29:16.631Z,3.00
2022-11-19T23:31:45.246Z,2.22
2022-11-19T23:34:13.534Z,2.90
2022-11-19T23:36:42.921Z,3.13
2022-11-19T23:39:16.684Z,2.92
2022-11-19T23:41:46.817Z,3.60
2022-11-19T23:44:15.170Z,3.40
2022-11-19T23:46:43.556Z,3.25
2022-11-19T23:49:13.025Z,3.53
2022-11-19T23:51:41.748Z,3.65
2022-11-19T23:54:12.736Z,3.40
2022-11-19T23:56:47.823Z,4.00
2022-11-19T23:59:19.486Z,3.70
